ACA32 CYVR-CYYZ
Flight info
| Callsign | ACA32 |
|---|---|
| Flight time | N/A |
| Altitude | 41000 |
| Route | ALNOD DCT IKNIX DCT BEVEL DCT 4930N10000W DCT AGLIN DCT OTNIK BOXUM7 |
| Aircraft | A359/H-SDE2E3GHIJ3J4J5LM1ORWXY/LB1D1 |
Departure
| Time | N/A |
|---|---|
| Airport | Vancouver International Airport (CYVR) |
Arrival
| Time | 2026-05-07 01:34 |
|---|---|
| Airport | Toronto Pearson International Airport (CYYZ) |
| Time | Latitude | Longitude | Altitude | Speed | Heading |
|---|---|---|---|---|---|
| 2026-05-07 00:06 | 48.77136 | -92.86343 | 41027 ft | 533 kts | 101° |
| 2026-05-07 00:06 | 48.76392 | -92.80833 | 41026 ft | 533 kts | 101° |
| 2026-05-07 00:06 | 48.74897 | -92.69829 | 41024 ft | 533 kts | 101° |
| 2026-05-07 00:07 | 48.73390 | -92.58817 | 41023 ft | 533 kts | 101° |
| 2026-05-07 00:07 | 48.71874 | -92.47821 | 41020 ft | 533 kts | 101° |
| 2026-05-07 00:08 | 48.70358 | -92.36907 | 41020 ft | 533 kts | 101° |
| 2026-05-07 00:08 | 48.68821 | -92.25928 | 41018 ft | 533 kts | 102° |
| 2026-05-07 00:09 | 48.67273 | -92.14949 | 41021 ft | 534 kts | 102° |
| 2026-05-07 00:09 | 48.65714 | -92.03975 | 41012 ft | 534 kts | 102° |
| 2026-05-07 00:10 | 48.64144 | -91.93001 | 41012 ft | 534 kts | 102° |
| 2026-05-07 00:10 | 48.62563 | -91.82029 | 41012 ft | 534 kts | 102° |
| 2026-05-07 00:11 | 48.60971 | -91.71060 | 41009 ft | 535 kts | 102° |
| 2026-05-07 00:11 | 48.59367 | -91.60090 | 41010 ft | 535 kts | 102° |
| 2026-05-07 00:12 | 48.57751 | -91.49116 | 41004 ft | 535 kts | 102° |
| 2026-05-07 00:12 | 48.56126 | -91.38152 | 40999 ft | 535 kts | 102° |
| 2026-05-07 00:13 | 48.54489 | -91.27195 | 41001 ft | 535 kts | 103° |
| 2026-05-07 00:13 | 48.52843 | -91.16246 | 40996 ft | 535 kts | 103° |
| 2026-05-07 00:14 | 48.51187 | -91.05309 | 40996 ft | 535 kts | 103° |
| 2026-05-07 00:14 | 48.49520 | -90.94378 | 40993 ft | 535 kts | 103° |
| 2026-05-07 00:15 | 48.47842 | -90.83448 | 40988 ft | 535 kts | 103° |
| 2026-05-07 00:15 | 48.46153 | -90.72521 | 40988 ft | 535 kts | 103° |
| 2026-05-07 00:16 | 48.44454 | -90.61599 | 40979 ft | 536 kts | 103° |
| 2026-05-07 00:16 | 48.42744 | -90.50683 | 40978 ft | 536 kts | 103° |
| 2026-05-07 00:17 | 48.41022 | -90.39763 | 40981 ft | 536 kts | 103° |
| 2026-05-07 00:17 | 48.39581 | -90.30686 | 40974 ft | 537 kts | 104° |
| 2026-05-07 00:18 | 48.37839 | -90.19772 | 40977 ft | 537 kts | 104° |
| 2026-05-07 00:18 | 48.36085 | -90.08857 | 40971 ft | 537 kts | 104° |
| 2026-05-07 00:19 | 48.34321 | -89.97953 | 40971 ft | 537 kts | 104° |
| 2026-05-07 00:19 | 48.32547 | -89.87057 | 40968 ft | 537 kts | 104° |
| 2026-05-07 00:20 | 48.30761 | -89.76160 | 40961 ft | 537 kts | 104° |
| 2026-05-07 00:20 | 48.28966 | -89.65274 | 40951 ft | 537 kts | 104° |
| 2026-05-07 00:21 | 48.27161 | -89.54398 | 40945 ft | 537 kts | 104° |
| 2026-05-07 00:21 | 48.25198 | -89.43593 | 40940 ft | 536 kts | 111° |
| 2026-05-07 00:22 | 48.22395 | -89.33313 | 40939 ft | 536 kts | 114° |
| 2026-05-07 00:22 | 48.19472 | -89.23022 | 40941 ft | 537 kts | 114° |
| 2026-05-07 00:23 | 48.16529 | -89.12739 | 40944 ft | 537 kts | 114° |
| 2026-05-07 00:23 | 48.13575 | -89.02467 | 40952 ft | 537 kts | 114° |
| 2026-05-07 00:24 | 48.10609 | -88.92200 | 40955 ft | 537 kts | 114° |
| 2026-05-07 00:24 | 48.07633 | -88.81944 | 40955 ft | 537 kts | 114° |
| 2026-05-07 00:25 | 48.04650 | -88.71706 | 40960 ft | 537 kts | 115° |
| 2026-05-07 00:25 | 48.01660 | -88.61487 | 40957 ft | 537 kts | 115° |
| 2026-05-07 00:26 | 47.98656 | -88.51266 | 40956 ft | 538 kts | 115° |
| 2026-05-07 00:26 | 47.95641 | -88.41046 | 40960 ft | 538 kts | 115° |
| 2026-05-07 00:27 | 47.92616 | -88.30839 | 40961 ft | 538 kts | 115° |
| 2026-05-07 00:27 | 47.89580 | -88.20635 | 40959 ft | 538 kts | 115° |
| 2026-05-07 00:28 | 47.86537 | -88.10448 | 40963 ft | 538 kts | 115° |
| 2026-05-07 00:28 | 47.83483 | -88.00268 | 40964 ft | 538 kts | 115° |
| 2026-05-07 00:29 | 47.80421 | -87.90107 | 40966 ft | 538 kts | 115° |
| 2026-05-07 00:30 | 47.74266 | -87.69799 | 40974 ft | 539 kts | 116° |
| 2026-05-07 00:30 | 47.71171 | -87.59651 | 40974 ft | 539 kts | 116° |
| 2026-05-07 00:31 | 47.68066 | -87.49510 | 40977 ft | 539 kts | 116° |
| 2026-05-07 00:31 | 47.64974 | -87.39454 | 40975 ft | 539 kts | 116° |
| 2026-05-07 00:32 | 47.61852 | -87.29339 | 40976 ft | 539 kts | 116° |
| 2026-05-07 00:32 | 47.58701 | -87.19174 | 40980 ft | 539 kts | 116° |
| 2026-05-07 00:33 | 47.55561 | -87.09086 | 40965 ft | 539 kts | 116° |
| 2026-05-07 00:33 | 47.52413 | -86.99010 | 40983 ft | 540 kts | 116° |
| 2026-05-07 00:34 | 47.49271 | -86.88994 | 40983 ft | 540 kts | 116° |
| 2026-05-07 00:34 | 47.46101 | -86.78928 | 40988 ft | 540 kts | 117° |
| 2026-05-07 00:35 | 47.42900 | -86.68807 | 40983 ft | 540 kts | 117° |
| 2026-05-07 00:35 | 47.39715 | -86.58772 | 40987 ft | 540 kts | 117° |
| 2026-05-07 00:36 | 47.36539 | -86.48809 | 40987 ft | 540 kts | 117° |
| 2026-05-07 00:36 | 47.33335 | -86.38795 | 40991 ft | 540 kts | 117° |
| 2026-05-07 00:37 | 47.30120 | -86.28790 | 40995 ft | 540 kts | 117° |
| 2026-05-07 00:37 | 47.26895 | -86.18789 | 40995 ft | 541 kts | 117° |
| 2026-05-07 00:38 | 47.23657 | -86.08789 | 40996 ft | 541 kts | 117° |
| 2026-05-07 00:38 | 47.20415 | -85.98814 | 41002 ft | 541 kts | 117° |
| 2026-05-07 00:39 | 47.17163 | -85.88849 | 41000 ft | 541 kts | 117° |
| 2026-05-07 00:39 | 47.13899 | -85.78883 | 40993 ft | 541 kts | 118° |
| 2026-05-07 00:40 | 47.10627 | -85.68934 | 40993 ft | 541 kts | 118° |
| 2026-05-07 00:40 | 47.07345 | -85.58992 | 40992 ft | 542 kts | 118° |
| 2026-05-07 00:41 | 47.04053 | -85.49059 | 40994 ft | 542 kts | 118° |
| 2026-05-07 00:41 | 47.00749 | -85.39125 | 40992 ft | 542 kts | 118° |
| 2026-05-07 00:42 | 46.97438 | -85.29209 | 40993 ft | 542 kts | 118° |
| 2026-05-07 00:42 | 46.94117 | -85.19303 | 40997 ft | 542 kts | 118° |
| 2026-05-07 00:43 | 46.90788 | -85.09411 | 40989 ft | 542 kts | 118° |
| 2026-05-07 00:43 | 46.87449 | -84.99525 | 40996 ft | 542 kts | 118° |
| 2026-05-07 00:44 | 46.84123 | -84.89716 | 40993 ft | 543 kts | 119° |
| 2026-05-07 00:44 | 46.80761 | -84.79837 | 40996 ft | 544 kts | 119° |
| 2026-05-07 00:45 | 46.77389 | -84.69966 | 40983 ft | 544 kts | 119° |
| 2026-05-07 00:45 | 46.74007 | -84.60103 | 40983 ft | 544 kts | 119° |
| 2026-05-07 00:46 | 46.70613 | -84.50243 | 40977 ft | 544 kts | 119° |
| 2026-05-07 00:46 | 46.67213 | -84.40402 | 40976 ft | 544 kts | 120° |
| 2026-05-07 00:47 | 46.63805 | -84.30573 | 40961 ft | 544 kts | 120° |
| 2026-05-07 00:47 | 46.60387 | -84.20756 | 40967 ft | 544 kts | 120° |
| 2026-05-07 00:48 | 46.56958 | -84.10939 | 40969 ft | 544 kts | 120° |
| 2026-05-07 00:48 | 46.53522 | -84.01142 | 40971 ft | 544 kts | 120° |
| 2026-05-07 00:49 | 46.50080 | -83.91363 | 40970 ft | 544 kts | 120° |
| 2026-05-07 00:49 | 46.46622 | -83.81574 | 40976 ft | 545 kts | 120° |
| 2026-05-07 00:50 | 46.43159 | -83.71807 | 40974 ft | 545 kts | 120° |
| 2026-05-07 00:50 | 46.39511 | -83.62204 | 40977 ft | 541 kts | 128° |
| 2026-05-07 00:51 | 46.35200 | -83.53296 | 40974 ft | 541 kts | 129° |
| 2026-05-07 00:51 | 46.30864 | -83.44489 | 40977 ft | 541 kts | 129° |
| 2026-05-07 00:52 | 46.26496 | -83.35624 | 40977 ft | 541 kts | 129° |
| 2026-05-07 00:52 | 46.22125 | -83.26771 | 40977 ft | 541 kts | 129° |
| 2026-05-07 00:53 | 46.17716 | -83.17868 | 40975 ft | 541 kts | 130° |
| 2026-05-07 00:53 | 46.13355 | -83.09091 | 40971 ft | 543 kts | 130° |
| 2026-05-07 00:54 | 46.08954 | -83.00250 | 40976 ft | 543 kts | 130° |
| 2026-05-07 00:54 | 46.04542 | -82.91429 | 40969 ft | 543 kts | 130° |
| 2026-05-07 00:55 | 46.00122 | -82.82618 | 40953 ft | 543 kts | 130° |
| 2026-05-07 00:55 | 45.95699 | -82.73827 | 40957 ft | 543 kts | 130° |
| 2026-05-07 00:56 | 45.91264 | -82.65038 | 40948 ft | 543 kts | 130° |
| 2026-05-07 00:56 | 45.86821 | -82.56261 | 40953 ft | 544 kts | 130° |
| 2026-05-07 00:57 | 45.82364 | -82.47486 | 40976 ft | 544 kts | 131° |
| 2026-05-07 00:57 | 45.77904 | -82.38731 | 40980 ft | 544 kts | 131° |
| 2026-05-07 00:58 | 45.73434 | -82.29980 | 40982 ft | 544 kts | 131° |
| 2026-05-07 00:58 | 45.68958 | -82.21246 | 40974 ft | 544 kts | 131° |
| 2026-05-07 00:59 | 45.62198 | -82.08182 | 40982 ft | 544 kts | 134° |
| 2026-05-07 01:00 | 45.56964 | -82.00552 | 40988 ft | 536 kts | 142° |
| 2026-05-07 01:00 | 45.51518 | -81.93285 | 40990 ft | 536 kts | 142° |
| 2026-05-07 01:01 | 45.46108 | -81.86069 | 40987 ft | 536 kts | 143° |
| 2026-05-07 01:01 | 45.40659 | -81.78811 | 40989 ft | 537 kts | 143° |
| 2026-05-07 01:02 | 45.35201 | -81.71557 | 40993 ft | 537 kts | 143° |
| 2026-05-07 01:02 | 45.29741 | -81.64319 | 40992 ft | 537 kts | 143° |
| 2026-05-07 01:03 | 45.24272 | -81.57089 | 40859 ft | 535 kts | 143° |
| 2026-05-07 01:03 | 45.21586 | -81.53535 | 40146 ft | 525 kts | 143° |
| 2026-05-07 01:03 | 45.18922 | -81.50022 | 39394 ft | 518 kts | 144° |
| 2026-05-07 01:03 | 45.16312 | -81.46581 | 38757 ft | 507 kts | 144° |
| 2026-05-07 01:04 | 45.13741 | -81.43203 | 38059 ft | 504 kts | 144° |
| 2026-05-07 01:04 | 45.11170 | -81.39835 | 37385 ft | 504 kts | 145° |
| 2026-05-07 01:04 | 45.08595 | -81.36466 | 36721 ft | 504 kts | 145° |
| 2026-05-07 01:04 | 45.06017 | -81.33096 | 36048 ft | 505 kts | 145° |
| 2026-05-07 01:05 | 45.03434 | -81.29721 | 35345 ft | 506 kts | 146° |
| 2026-05-07 01:05 | 45.00854 | -81.26351 | 34835 ft | 503 kts | 146° |
| 2026-05-07 01:05 | 44.98288 | -81.23003 | 34312 ft | 501 kts | 146° |
| 2026-05-07 01:05 | 44.95734 | -81.19674 | 33749 ft | 498 kts | 146° |
| 2026-05-07 01:06 | 44.93195 | -81.16370 | 33186 ft | 494 kts | 146° |
| 2026-05-07 01:06 | 44.90683 | -81.13102 | 32676 ft | 489 kts | 147° |
| 2026-05-07 01:06 | 44.88193 | -81.09869 | 32166 ft | 484 kts | 147° |
| 2026-05-07 01:06 | 44.86554 | -81.07744 | 31835 ft | 481 kts | 147° |
| 2026-05-07 01:07 | 44.84103 | -81.04570 | 31338 ft | 477 kts | 148° |
| 2026-05-07 01:07 | 44.81669 | -81.01421 | 30836 ft | 472 kts | 148° |
| 2026-05-07 01:07 | 44.79262 | -80.98311 | 30349 ft | 468 kts | 148° |
| 2026-05-07 01:07 | 44.76870 | -80.95226 | 29831 ft | 464 kts | 149° |
| 2026-05-07 01:08 | 44.74500 | -80.92172 | 29307 ft | 459 kts | 149° |
| 2026-05-07 01:08 | 44.72158 | -80.89156 | 28818 ft | 454 kts | 149° |
| 2026-05-07 01:08 | 44.69844 | -80.86180 | 28327 ft | 447 kts | 148° |
| 2026-05-07 01:08 | 44.67561 | -80.83248 | 27865 ft | 442 kts | 149° |
| 2026-05-07 01:09 | 44.65304 | -80.80353 | 27402 ft | 437 kts | 149° |
| 2026-05-07 01:09 | 44.63064 | -80.77484 | 26919 ft | 433 kts | 149° |
| 2026-05-07 01:09 | 44.60852 | -80.74654 | 26437 ft | 429 kts | 148° |
| 2026-05-07 01:09 | 44.58658 | -80.71851 | 25996 ft | 424 kts | 149° |
| 2026-05-07 01:10 | 44.56484 | -80.69074 | 25538 ft | 421 kts | 149° |
| 2026-05-07 01:10 | 44.54331 | -80.66328 | 25075 ft | 417 kts | 149° |
| 2026-05-07 01:10 | 44.52219 | -80.63638 | 24610 ft | 414 kts | 149° |
| 2026-05-07 01:10 | 44.50066 | -80.60899 | 24121 ft | 411 kts | 149° |
| 2026-05-07 01:11 | 44.47955 | -80.58214 | 23671 ft | 408 kts | 149° |
| 2026-05-07 01:11 | 44.45888 | -80.55589 | 23159 ft | 405 kts | 149° |
| 2026-05-07 01:11 | 44.43817 | -80.52959 | 22634 ft | 400 kts | 148° |
| 2026-05-07 01:11 | 44.41746 | -80.50330 | 22207 ft | 394 kts | 148° |
| 2026-05-07 01:12 | 44.39726 | -80.47771 | 21764 ft | 390 kts | 148° |
| 2026-05-07 01:12 | 44.37750 | -80.45271 | 21309 ft | 386 kts | 148° |
| 2026-05-07 01:12 | 44.35768 | -80.42765 | 20856 ft | 383 kts | 148° |
| 2026-05-07 01:12 | 44.33803 | -80.40284 | 20408 ft | 380 kts | 148° |
| 2026-05-07 01:13 | 44.31851 | -80.37821 | 19972 ft | 377 kts | 148° |
| 2026-05-07 01:13 | 44.29911 | -80.35377 | 19534 ft | 375 kts | 148° |
| 2026-05-07 01:13 | 44.27980 | -80.32946 | 19086 ft | 373 kts | 148° |
| 2026-05-07 01:13 | 44.26060 | -80.30531 | 18636 ft | 371 kts | 148° |
| 2026-05-07 01:14 | 44.24148 | -80.28129 | 18192 ft | 370 kts | 147° |
| 2026-05-07 01:14 | 44.22242 | -80.25737 | 17713 ft | 367 kts | 147° |
| 2026-05-07 01:14 | 44.20348 | -80.23359 | 17267 ft | 365 kts | 147° |
| 2026-05-07 01:14 | 44.18472 | -80.21007 | 16821 ft | 362 kts | 146° |
| 2026-05-07 01:15 | 44.16608 | -80.18673 | 16404 ft | 359 kts | 146° |
| 2026-05-07 01:15 | 44.14762 | -80.16357 | 15976 ft | 356 kts | 146° |
| 2026-05-07 01:15 | 44.12924 | -80.14052 | 15558 ft | 354 kts | 145° |
| 2026-05-07 01:15 | 44.11097 | -80.11761 | 15132 ft | 353 kts | 145° |
| 2026-05-07 01:16 | 44.09278 | -80.09484 | 14697 ft | 351 kts | 145° |
| 2026-05-07 01:16 | 44.07466 | -80.07218 | 14278 ft | 349 kts | 144° |
| 2026-05-07 01:16 | 44.05668 | -80.04961 | 13859 ft | 348 kts | 144° |
| 2026-05-07 01:16 | 44.03869 | -80.02715 | 13403 ft | 346 kts | 144° |
| 2026-05-07 01:17 | 44.02085 | -80.00493 | 12967 ft | 343 kts | 144° |
| 2026-05-07 01:17 | 44.00287 | -79.98354 | 12554 ft | 337 kts | 148° |
| 2026-05-07 01:17 | 43.98414 | -79.96430 | 12139 ft | 333 kts | 150° |
| 2026-05-07 01:17 | 43.96546 | -79.94549 | 11727 ft | 330 kts | 149° |
| 2026-05-07 01:18 | 43.94701 | -79.92671 | 11328 ft | 327 kts | 149° |
| 2026-05-07 01:18 | 43.92876 | -79.90797 | 10921 ft | 325 kts | 148° |
| 2026-05-07 01:18 | 43.91069 | -79.88931 | 10525 ft | 323 kts | 148° |
| 2026-05-07 01:18 | 43.89285 | -79.87082 | 10248 ft | 315 kts | 148° |
| 2026-05-07 01:19 | 43.87571 | -79.85300 | 10104 ft | 302 kts | 148° |
| 2026-05-07 01:19 | 43.85925 | -79.83588 | 9967 ft | 291 kts | 148° |
| 2026-05-07 01:19 | 43.84296 | -79.81903 | 9802 ft | 296 kts | 148° |
| 2026-05-07 01:19 | 43.82634 | -79.80188 | 9476 ft | 298 kts | 148° |
| 2026-05-07 01:20 | 43.80975 | -79.78469 | 9115 ft | 299 kts | 148° |
| 2026-05-07 01:20 | 43.79312 | -79.76748 | 8797 ft | 299 kts | 148° |
| 2026-05-07 01:20 | 43.77650 | -79.75029 | 8481 ft | 298 kts | 147° |
| 2026-05-07 01:20 | 43.76035 | -79.73228 | 8145 ft | 300 kts | 139° |
| 2026-05-07 01:21 | 43.74921 | -79.70807 | 7899 ft | 302 kts | 108° |
| 2026-05-07 01:21 | 43.74531 | -79.67954 | 7767 ft | 302 kts | 96° |
| 2026-05-07 01:21 | 43.74316 | -79.65071 | 7617 ft | 301 kts | 95° |
| 2026-05-07 01:21 | 43.74112 | -79.62195 | 7463 ft | 300 kts | 95° |
| 2026-05-07 01:22 | 43.73901 | -79.59333 | 7318 ft | 299 kts | 95° |
| 2026-05-07 01:22 | 43.73671 | -79.56481 | 7167 ft | 298 kts | 97° |
| 2026-05-07 01:22 | 43.73032 | -79.53780 | 7003 ft | 296 kts | 122° |
| 2026-05-07 01:22 | 43.71724 | -79.51626 | 6865 ft | 292 kts | 138° |
| 2026-05-07 01:23 | 43.70246 | -79.49705 | 6717 ft | 292 kts | 140° |
| 2026-05-07 01:23 | 43.68756 | -79.47807 | 6581 ft | 291 kts | 139° |
| 2026-05-07 01:23 | 43.67290 | -79.45929 | 6431 ft | 291 kts | 139° |
| 2026-05-07 01:23 | 43.65794 | -79.44000 | 6276 ft | 290 kts | 139° |
| 2026-05-07 01:24 | 43.64320 | -79.42092 | 6152 ft | 289 kts | 140° |
| 2026-05-07 01:24 | 43.62873 | -79.40216 | 5997 ft | 283 kts | 140° |
| 2026-05-07 01:24 | 43.61444 | -79.38366 | 5843 ft | 282 kts | 139° |
| 2026-05-07 01:24 | 43.60039 | -79.36547 | 5699 ft | 281 kts | 139° |
| 2026-05-07 01:25 | 43.58604 | -79.34719 | 5550 ft | 280 kts | 141° |
| 2026-05-07 01:25 | 43.57132 | -79.32959 | 5424 ft | 280 kts | 142° |
| 2026-05-07 01:25 | 43.55654 | -79.31215 | 5267 ft | 279 kts | 142° |
| 2026-05-07 01:25 | 43.54180 | -79.29479 | 5138 ft | 279 kts | 141° |
| 2026-05-07 01:26 | 43.52711 | -79.27730 | 4993 ft | 279 kts | 141° |
| 2026-05-07 01:26 | 43.51238 | -79.26008 | 4835 ft | 277 kts | 144° |
| 2026-05-07 01:26 | 43.49535 | -79.24846 | 4712 ft | 272 kts | 169° |
| 2026-05-07 01:26 | 43.47689 | -79.24863 | 4575 ft | 264 kts | 198° |
| 2026-05-07 01:27 | 43.46092 | -79.25997 | 4440 ft | 257 kts | 224° |
| 2026-05-07 01:27 | 43.45040 | -79.27930 | 4326 ft | 251 kts | 249° |
| 2026-05-07 01:27 | 43.44771 | -79.30252 | 4198 ft | 247 kts | 279° |
| 2026-05-07 01:27 | 43.45340 | -79.32458 | 4064 ft | 246 kts | 300° |
| 2026-05-07 01:28 | 43.46342 | -79.34363 | 3942 ft | 246 kts | 310° |
| 2026-05-07 01:28 | 43.47532 | -79.36062 | 3802 ft | 247 kts | 315° |
| 2026-05-07 01:28 | 43.48786 | -79.37674 | 3684 ft | 246 kts | 316° |
| 2026-05-07 01:28 | 43.50040 | -79.39282 | 3555 ft | 246 kts | 316° |
| 2026-05-07 01:29 | 43.51290 | -79.40890 | 3428 ft | 245 kts | 316° |
| 2026-05-07 01:29 | 43.52505 | -79.42459 | 3319 ft | 233 kts | 316° |
| 2026-05-07 01:29 | 43.53652 | -79.43948 | 3216 ft | 220 kts | 316° |
| 2026-05-07 01:29 | 43.54739 | -79.45361 | 3116 ft | 209 kts | 316° |
| 2026-05-07 01:30 | 43.55770 | -79.46705 | 3023 ft | 198 kts | 316° |
| 2026-05-07 01:30 | 43.56744 | -79.47976 | 2940 ft | 187 kts | 315° |
| 2026-05-07 01:30 | 43.57664 | -79.49175 | 2857 ft | 177 kts | 315° |
| 2026-05-07 01:30 | 43.58542 | -79.50318 | 2770 ft | 165 kts | 315° |
| 2026-05-07 01:31 | 43.59325 | -79.51337 | 2710 ft | 147 kts | 315° |
| 2026-05-07 01:31 | 43.60029 | -79.52254 | 2567 ft | 132 kts | 315° |
| 2026-05-07 01:31 | 43.60671 | -79.53090 | 2406 ft | 126 kts | 315° |
| 2026-05-07 01:31 | 43.61297 | -79.53906 | 2219 ft | 123 kts | 315° |
| 2026-05-07 01:32 | 43.61917 | -79.54713 | 2055 ft | 123 kts | 315° |
| 2026-05-07 01:32 | 43.62536 | -79.55522 | 1885 ft | 122 kts | 315° |
| 2026-05-07 01:32 | 43.63156 | -79.56330 | 1727 ft | 122 kts | 316° |
| 2026-05-07 01:32 | 43.63774 | -79.57135 | 1538 ft | 123 kts | 315° |
| 2026-05-07 01:33 | 43.64393 | -79.57945 | 1334 ft | 120 kts | 315° |
| 2026-05-07 01:33 | 43.64999 | -79.58721 | 1145 ft | 119 kts | 315° |
| 2026-05-07 01:33 | 43.65604 | -79.59502 | 1008 ft | 120 kts | 314° |
| 2026-05-07 01:33 | 43.66238 | -79.60332 | 848 ft | 128 kts | 316° |
| 2026-05-07 01:34 | 43.66885 | -79.61199 | 680 ft | 130 kts | 314° |
| 2026-05-07 01:34 | 43.67524 | -79.62038 | 582 ft | 119 kts | 317° |
| 2026-05-07 01:34 | 43.67958 | -79.62604 | 578 ft | 44 kts | 317° |
| 2026-05-07 01:34 | 43.68071 | -79.62701 | 578 ft | 11 kts | 2° |
| 2026-05-07 01:35 | 43.68123 | -79.62626 | 582 ft | 21 kts | 46° |
| 2026-05-07 01:35 | 43.68221 | -79.62481 | 577 ft | 14 kts | 56° |
| 2026-05-07 01:35 | 43.68217 | -79.62412 | 576 ft | 10 kts | 136° |
| 2026-05-07 01:35 | 43.68134 | -79.62301 | 573 ft | 22 kts | 136° |
| 2026-05-07 01:36 | 43.68010 | -79.62143 | 574 ft | 25 kts | 138° |
| 2026-05-07 01:36 | 43.67979 | -79.61981 | 568 ft | 17 kts | 101° |
| 2026-05-07 01:36 | 43.67898 | -79.61888 | 575 ft | 16 kts | 151° |
| 2026-05-07 01:36 | 43.67802 | -79.61787 | 572 ft | 19 kts | 137° |
| 2026-05-07 01:37 | 43.67724 | -79.61688 | 577 ft | 21 kts | 137° |